Time,TemperatureF,DewpointF,PressureIn,WindDirection,WindDirectionDegrees,WindSpeedMPH,WindSpeedGustMPH,Humidity,HourlyPrecipIn,Conditions,Clouds,dailyrainin,SoftwareType,DateUTC
2013-06-11 00:03:00,55.2,21.0,29.82,SSW,199,5.8,5.8,26,0.00,,,0.00,VWS V14.01,2013-06-11 07:03:00,
2013-06-11 00:09:00,54.9,20.6,29.82,SW,235,4.0,6.7,26,0.00,,,0.00,VWS V14.01,2013-06-11 07:09:00,
2013-06-11 00:14:00,54.7,20.5,29.82,SW,235,4.0,4.0,26,0.00,,,0.00,VWS V14.01,2013-06-11 07:14:00,
2013-06-11 00:19:00,54.7,20.5,29.82,SW,231,10.1,10.1,26,0.00,,,0.00,VWS V14.01,2013-06-11 07:19:00,
2013-06-11 00:24:00,54.5,20.3,29.82,SW,221,10.5,10.5,26,0.00,,,0.00,VWS V14.01,2013-06-11 07:24:00,
2013-06-11 00:30:00,54.5,20.3,29.82,WSW,249,15.4,15.4,26,0.00,,,0.00,VWS V14.01,2013-06-11 07:30:00,
2013-06-11 00:35:00,54.1,20.0,29.82,SW,231,13.2,13.2,26,0.00,,,0.00,VWS V14.01,2013-06-11 07:35:00,
2013-06-11 00:40:00,54.0,19.9,29.82,SW,231,10.5,10.5,26,0.00,,,0.00,VWS V14.01,2013-06-11 07:40:00,
2013-06-11 00:45:00,54.0,19.9,29.82,WSW,256,5.8,13.2,26,0.00,,,0.00,VWS V14.01,2013-06-11 07:45:00,
2013-06-11 00:51:00,53.8,19.7,29.82,SW,215,10.5,10.5,26,0.00,,,0.00,VWS V14.01,2013-06-11 07:51:00,
2013-06-11 00:57:00,53.8,19.7,29.82,SW,230,12.8,12.8,26,0.00,,,0.00,VWS V14.01,2013-06-11 07:57:00,
2013-06-11 01:03:00,53.6,19.6,29.82,WSW,244,13.2,13.2,26,0.00,,,0.00,VWS V14.01,2013-06-11 08:03:00,
2013-06-11 01:09:00,53.4,19.4,29.82,WSW,243,12.8,12.8,26,0.00,,,0.00,VWS V14.01,2013-06-11 08:09:00,
2013-06-11 01:14:00,53.4,19.4,29.82,South,189,12.3,16.3,26,0.00,,,0.00,VWS V14.01,2013-06-11 08:14:00,
2013-06-11 01:19:00,53.4,19.4,29.82,WSW,246,10.1,15.0,26,0.00,,,0.00,VWS V14.01,2013-06-11 08:19:00,
2013-06-11 01:24:00,53.2,19.3,29.82,SSW,208,8.1,8.1,26,0.00,,,0.00,VWS V14.01,2013-06-11 08:24:00,
2013-06-11 01:29:00,53.2,19.3,29.82,SW,233,10.1,10.1,26,0.00,,,0.00,VWS V14.01,2013-06-11 08:29:00,
2013-06-11 01:34:00,53.2,19.3,29.82,SW,222,6.3,15.4,26,0.00,,,0.00,VWS V14.01,2013-06-11 08:34:00,
2013-06-11 01:39:00,53.1,19.1,29.82,SW,224,13.2,13.2,26,0.00,,,0.00,VWS V14.01,2013-06-11 08:39:00,
2013-06-11 01:45:00,53.1,20.0,29.82,WSW,238,8.3,8.3,27,0.00,,,0.00,VWS V14.01,2013-06-11 08:45:00,
2013-06-11 01:50:00,52.9,19.0,29.82,SW,221,11.9,11.9,26,0.00,,,0.00,VWS V14.01,2013-06-11 08:50:00,
2013-06-11 01:55:00,52.9,19.0,29.82,SW,218,8.7,8.7,26,0.00,,,0.00,VWS V14.01,2013-06-11 08:55:00,
2013-06-11 02:00:00,52.9,19.0,29.82,WSW,244,12.8,12.8,26,0.00,,,0.00,VWS V14.01,2013-06-11 09:00:00,
2013-06-11 02:06:00,52.9,19.0,29.82,SW,233,7.6,7.6,26,0.00,,,0.00,VWS V14.01,2013-06-11 09:06:00,
2013-06-11 02:12:00,53.1,20.0,29.82,SW,221,8.3,8.3,27,0.00,,,0.00,VWS V14.01,2013-06-11 09:12:00,
2013-06-11 02:18:00,53.1,19.1,29.82,SW,216,7.6,7.6,26,0.00,,,0.00,VWS V14.01,2013-06-11 09:18:00,
2013-06-11 02:24:00,52.9,19.0,29.82,WSW,238,12.3,12.3,26,0.00,,,0.00,VWS V14.01,2013-06-11 09:24:00,
2013-06-11 02:29:00,52.9,19.0,29.82,SW,230,11.0,11.0,26,0.00,,,0.00,VWS V14.01,2013-06-11 09:29:00,
2013-06-11 02:34:00,52.7,18.8,29.82,SW,222,13.2,13.2,26,0.00,,,0.00,VWS V14.01,2013-06-11 09:34:00,
2013-06-11 02:39:00,52.7,18.8,29.82,SW,227,11.0,14.5,26,0.00,,,0.00,VWS V14.01,2013-06-11 09:39:00,
2013-06-11 02:44:00,52.5,18.6,29.82,SW,221,8.7,8.7,26,0.00,,,0.00,VWS V14.01,2013-06-11 09:44:00,
2013-06-11 02:50:00,52.5,18.6,29.82,WSW,238,7.2,12.3,26,0.00,,,0.00,VWS V14.01,2013-06-11 09:50:00,
2013-06-11 02:55:00,52.5,18.6,29.82,WSW,238,10.5,10.5,26,0.00,,,0.00,VWS V14.01,2013-06-11 09:55:00,
2013-06-11 03:01:00,52.5,18.6,29.82,WSW,238,10.5,10.5,26,0.00,,,0.00,VWS V14.01,2013-06-11 10:01:00,
2013-06-11 03:07:00,52.7,18.8,29.82,WSW,253,8.7,11.0,26,0.00,,,0.00,VWS V14.01,2013-06-11 10:07:00,
2013-06-11 03:12:00,52.5,18.6,29.82,SW,227,8.3,10.5,26,0.00,,,0.00,VWS V14.01,2013-06-11 10:12:00,
2013-06-11 03:18:00,52.3,18.5,29.82,WSW,238,14.5,14.5,26,0.00,,,0.00,VWS V14.01,2013-06-11 10:18:00,
2013-06-11 03:23:00,52.5,18.6,29.82,SW,233,8.7,8.7,26,0.00,,,0.00,VWS V14.01,2013-06-11 10:23:00,
2013-06-11 03:29:00,52.3,18.5,29.82,SW,233,9.6,9.6,26,0.00,,,0.00,VWS V14.01,2013-06-11 10:29:00,
2013-06-11 03:35:00,52.3,18.5,29.82,SW,220,8.7,8.7,26,0.00,,,0.00,VWS V14.01,2013-06-11 10:35:00,
2013-06-11 03:41:00,52.3,18.5,29.82,WSW,243,10.1,10.1,26,0.00,,,0.00,VWS V14.01,2013-06-11 10:41:00,
2013-06-11 03:47:00,52.3,18.5,29.82,WSW,243,10.1,10.1,26,0.00,,,0.00,VWS V14.01,2013-06-11 10:47:00,
2013-06-11 03:52:00,52.3,18.5,29.82,SW,232,8.7,8.7,26,0.00,,,0.00,VWS V14.01,2013-06-11 10:52:00,
2013-06-11 03:57:00,52.3,18.5,29.82,WSW,257,11.0,11.0,26,0.00,,,0.00,VWS V14.01,2013-06-11 10:57:00,
2013-06-11 04:03:00,52.5,18.6,29.82,SW,231,9.6,9.6,26,0.00,,,0.00,VWS V14.01,2013-06-11 11:03:00,
2013-06-11 04:08:00,52.7,18.8,29.82,SW,235,8.7,8.7,26,0.00,,,0.00,VWS V14.01,2013-06-11 11:08:00,
2013-06-11 04:14:00,52.7,18.8,29.82,WSW,244,13.2,13.2,26,0.00,,,0.00,VWS V14.01,2013-06-11 11:14:00,
2013-06-11 04:20:00,52.7,18.8,29.82,SW,233,10.1,10.1,26,0.00,,,0.00,VWS V14.01,2013-06-11 11:20:00,
2013-06-11 04:25:00,52.7,18.8,29.82,SW,217,8.3,10.1,26,0.00,,,0.00,VWS V14.01,2013-06-11 11:25:00,
2013-06-11 04:30:00,52.7,19.7,29.82,SW,222,4.0,4.0,27,0.00,,,0.00,VWS V14.01,2013-06-11 11:30:00,
2013-06-11 04:36:00,52.7,18.8,29.82,SW,233,8.1,8.1,26,0.00,,,0.00,VWS V14.01,2013-06-11 11:36:00,
2013-06-11 04:41:00,52.9,19.0,29.82,SW,235,11.0,11.0,26,0.00,,,0.00,VWS V14.01,2013-06-11 11:41:00,
2013-06-11 04:47:00,52.9,19.0,29.82,West,278,8.1,11.0,26,0.00,,,0.00,VWS V14.01,2013-06-11 11:47:00,
2013-06-11 04:53:00,52.9,19.0,29.82,NW,304,10.5,10.5,26,0.00,,,0.00,VWS V14.01,2013-06-11 11:53:00,
2013-06-11 04:58:00,52.9,19.8,29.82,SSW,210,12.8,12.8,27,0.00,,,0.00,VWS V14.01,2013-06-11 11:58:00,
2013-06-11 05:04:00,52.9,19.8,29.82,WSW,253,13.2,13.2,27,0.00,,,0.00,VWS V14.01,2013-06-11 12:04:00,
2013-06-11 05:09:00,52.9,19.8,29.82,WSW,244,9.6,9.6,27,0.00,,,0.00,VWS V14.01,2013-06-11 12:09:00,
2013-06-11 05:15:00,52.7,19.7,29.82,WSW,244,9.6,9.6,27,0.00,,,0.00,VWS V14.01,2013-06-11 12:15:00,
2013-06-11 05:20:00,52.9,19.8,29.82,SW,233,12.8,12.8,27,0.00,,,0.00,VWS V14.01,2013-06-11 12:20:00,
2013-06-11 05:26:00,52.7,19.7,29.82,SW,217,8.7,11.0,27,0.00,,,0.00,VWS V14.01,2013-06-11 12:26:00,
2013-06-11 05:31:00,52.5,19.5,29.82,WSW,252,3.1,3.1,27,0.00,,,0.00,VWS V14.01,2013-06-11 12:31:00,
2013-06-11 05:37:00,52.9,19.8,29.82,West,278,5.8,5.8,27,0.00,,,0.00,VWS V14.01,2013-06-11 12:37:00,
2013-06-11 05:42:00,52.7,19.7,29.82,WSW,253,5.8,5.8,27,0.00,,,0.00,VWS V14.01,2013-06-11 12:42:00,
2013-06-11 05:48:00,53.1,20.0,29.82,SSW,207,7.6,7.6,27,0.00,,,0.00,VWS V14.01,2013-06-11 12:48:00,
2013-06-11 05:53:00,53.1,20.0,29.82,WSW,245,8.7,8.7,27,0.00,,,0.00,VWS V14.01,2013-06-11 12:53:00,
2013-06-11 05:58:00,53.1,19.1,29.82,West,280,7.6,14.5,26,0.00,,,0.00,VWS V14.01,2013-06-11 12:58:00,
2013-06-11 06:04:00,53.1,19.1,29.82,West,280,7.6,7.6,26,0.00,,,0.00,VWS V14.01,2013-06-11 13:04:00,
2013-06-11 06:09:00,53.2,19.3,29.82,WSW,244,6.3,8.1,26,0.00,,,0.00,VWS V14.01,2013-06-11 13:09:00,
2013-06-11 06:14:00,53.2,19.3,29.82,WSW,257,3.6,6.3,26,0.00,,,0.00,VWS V14.01,2013-06-11 13:14:00,
2013-06-11 06:19:00,53.4,19.4,29.82,SSW,211,8.3,11.4,26,0.00,,,0.00,VWS V14.01,2013-06-11 13:19:00,
2013-06-11 06:24:00,53.4,19.4,29.82,West,264,5.4,5.4,26,0.00,,,0.00,VWS V14.01,2013-06-11 13:24:00,
2013-06-11 06:29:00,53.6,19.6,29.82,South,189,9.6,9.6,26,0.00,,,0.00,VWS V14.01,2013-06-11 13:29:00,
2013-06-11 06:35:00,53.6,19.6,29.82,SW,235,8.1,8.1,26,0.00,,,0.00,VWS V14.01,2013-06-11 13:35:00,
2013-06-11 06:40:00,53.6,19.6,29.82,SW,234,8.1,8.1,26,0.00,,,0.00,VWS V14.01,2013-06-11 13:40:00,
2013-06-11 06:45:00,53.6,19.6,29.82,SSW,207,8.3,8.3,26,0.00,,,0.00,VWS V14.01,2013-06-11 13:45:00,
2013-06-11 06:50:00,53.6,19.6,29.82,WSW,245,13.2,13.2,26,0.00,,,0.00,VWS V14.01,2013-06-11 13:50:00,
2013-06-11 06:55:00,53.6,19.6,29.82,SW,231,9.2,12.8,26,0.00,,,0.00,VWS V14.01,2013-06-11 13:55:00,
2013-06-11 07:01:00,53.4,20.3,29.82,West,272,9.6,11.0,27,0.00,,,0.00,VWS V14.01,2013-06-11 14:01:00,
2013-06-11 07:06:00,53.4,20.3,29.82,SW,220,10.1,10.1,27,0.00,,,0.00,VWS V14.01,2013-06-11 14:06:00,
2013-06-11 07:11:00,53.4,20.3,29.82,WSW,243,3.6,3.6,27,0.00,,,0.00,VWS V14.01,2013-06-11 14:11:00,
2013-06-11 07:16:00,53.2,20.1,29.82,SW,235,14.5,14.5,27,0.00,,,0.00,VWS V14.01,2013-06-11 14:16:00,
2013-06-11 07:22:00,53.2,20.1,29.82,SW,215,8.3,10.5,27,0.00,,,0.00,VWS V14.01,2013-06-11 14:22:00,
2013-06-11 07:27:00,53.2,20.1,29.82,SW,234,6.3,6.3,27,0.00,,,0.00,VWS V14.01,2013-06-11 14:27:00,
2013-06-11 07:32:00,53.2,20.1,29.82,WSW,239,11.0,11.0,27,0.00,,,0.00,VWS V14.01,2013-06-11 14:32:00,
2013-06-11 07:38:00,53.4,20.3,29.85,WSW,239,11.0,11.0,27,0.00,,,0.00,VWS V14.01,2013-06-11 14:38:00,
2013-06-11 07:43:00,53.4,20.3,29.85,SW,234,5.8,5.8,27,0.00,,,0.00,VWS V14.01,2013-06-11 14:43:00,
2013-06-11 07:49:00,53.6,19.6,29.85,SW,235,13.2,13.2,26,0.00,,,0.00,VWS V14.01,2013-06-11 14:49:00,
2013-06-11 07:54:00,53.6,19.6,29.82,SW,235,8.3,8.3,26,0.00,,,0.00,VWS V14.01,2013-06-11 14:54:00,
2013-06-11 07:59:00,54.0,19.9,29.82,SW,229,8.1,16.3,26,0.00,,,0.00,VWS V14.01,2013-06-11 14:59:00,
2013-06-11 08:05:00,54.3,20.2,29.82,SW,232,8.1,8.1,26,0.00,,,0.00,VWS V14.01,2013-06-11 15:05:00,
2013-06-11 08:10:00,54.7,20.5,29.85,SSW,205,7.6,7.6,26,0.00,,,0.00,VWS V14.01,2013-06-11 15:10:00,
2013-06-11 08:16:00,54.5,20.3,29.85,SW,232,12.8,12.8,26,0.00,,,0.00,VWS V14.01,2013-06-11 15:16:00,
2013-06-11 08:21:00,54.5,20.3,29.85,WSW,237,10.1,10.1,26,0.00,,,0.00,VWS V14.01,2013-06-11 15:21:00,
2013-06-11 08:26:00,54.7,20.5,29.85,SW,227,17.4,17.4,26,0.00,,,0.00,VWS V14.01,2013-06-11 15:26:00,
2013-06-11 08:32:00,54.9,20.6,29.85,West,279,12.8,12.8,26,0.00,,,0.00,VWS V14.01,2013-06-11 15:32:00,
2013-06-11 08:37:00,54.7,20.5,29.85,SSW,208,13.6,17.9,26,0.00,,,0.00,VWS V14.01,2013-06-11 15:37:00,
2013-06-11 08:43:00,54.9,20.6,29.85,SSW,208,13.6,13.6,26,0.00,,,0.00,VWS V14.01,2013-06-11 15:43:00,
2013-06-11 08:48:00,54.9,20.6,29.85,SSW,206,12.3,12.3,26,0.00,,,0.00,VWS V14.01,2013-06-11 15:48:00,
2013-06-11 08:53:00,55.0,20.8,29.85,WSW,249,11.0,11.0,26,0.00,,,0.00,VWS V14.01,2013-06-11 15:53:00,
2013-06-11 08:58:00,55.0,20.8,29.85,WSW,239,13.2,13.2,26,0.00,,,0.00,VWS V14.01,2013-06-11 15:58:00,
2013-06-11 09:03:00,55.0,20.8,29.85,WSW,240,17.0,17.0,26,0.00,,,0.00,VWS V14.01,2013-06-11 16:03:00,
2013-06-11 09:08:00,54.9,20.6,29.85,WSW,241,14.1,14.1,26,0.00,,,0.00,VWS V14.01,2013-06-11 16:08:00,
2013-06-11 09:14:00,54.9,20.6,29.85,WSW,251,10.1,10.1,26,0.00,,,0.00,VWS V14.01,2013-06-11 16:14:00,
2013-06-11 09:19:00,55.4,20.2,29.85,SW,219,6.3,6.3,25,0.00,,,0.00,VWS V14.01,2013-06-11 16:19:00,
2013-06-11 09:25:00,55.4,20.2,29.85,SW,229,10.5,10.5,25,0.00,,,0.00,VWS V14.01,2013-06-11 16:25:00,
2013-06-11 09:30:00,55.4,20.2,29.85,SW,236,12.3,12.3,25,0.00,,,0.00,VWS V14.01,2013-06-11 16:30:00,
2013-06-11 09:36:00,55.2,21.0,29.85,SW,225,13.2,13.2,26,0.00,,,0.00,VWS V14.01,2013-06-11 16:36:00,
2013-06-11 09:41:00,55.4,20.2,29.85,SW,222,8.3,8.3,25,0.00,,,0.00,VWS V14.01,2013-06-11 16:41:00,
2013-06-11 09:47:00,55.2,21.0,29.85,WSW,247,5.8,5.8,26,0.00,,,0.00,VWS V14.01,2013-06-11 16:47:00,
2013-06-11 09:52:00,55.0,20.8,29.88,SW,229,12.3,12.3,26,0.00,,,0.00,VWS V14.01,2013-06-11 16:52:00,
2013-06-11 09:57:00,55.0,20.8,29.88,SW,236,12.3,12.3,26,0.00,,,0.00,VWS V14.01,2013-06-11 16:57:00,
2013-06-11 10:03:00,54.7,20.5,29.88,SW,231,13.2,18.3,26,0.00,,,0.00,VWS V14.01,2013-06-11 17:03:00,
2013-06-11 10:08:00,54.5,20.3,29.88,SW,235,12.8,12.8,26,0.00,,,0.00,VWS V14.01,2013-06-11 17:08:00,
2013-06-11 10:14:00,54.5,20.3,29.88,WSW,249,8.1,12.8,26,0.00,,,0.00,VWS V14.01,2013-06-11 17:14:00,
2013-06-11 10:19:00,54.9,20.6,29.88,WSW,241,14.1,14.1,26,0.00,,,0.00,VWS V14.01,2013-06-11 17:19:00,
2013-06-11 10:25:00,54.5,20.3,29.88,SW,233,16.8,16.8,26,0.00,,,0.00,VWS V14.01,2013-06-11 17:25:00,
2013-06-11 10:31:00,54.5,20.3,29.88,WSW,253,11.0,12.8,26,0.00,,,0.00,VWS V14.01,2013-06-11 17:31:00,
2013-06-11 10:37:00,54.0,19.9,29.88,SW,214,10.1,11.0,26,0.00,,,0.00,VWS V14.01,2013-06-11 17:37:00,
2013-06-11 10:43:00,54.1,20.0,29.88,WSW,252,15.0,15.0,26,0.00,,,0.00,VWS V14.01,2013-06-11 17:43:00,
2013-06-11 10:48:00,53.2,19.3,29.88,SW,224,15.0,15.0,26,0.00,,,0.00,VWS V14.01,2013-06-11 17:48:00,
2013-06-11 10:53:00,53.4,19.4,29.88,WSW,238,19.7,19.7,26,0.00,,,0.00,VWS V14.01,2013-06-11 17:53:00,
2013-06-11 10:59:00,53.8,18.8,29.88,WSW,238,19.7,19.7,25,0.00,,,0.00,VWS V14.01,2013-06-11 17:59:00,
2013-06-11 11:04:00,53.8,18.8,29.88,SW,233,15.9,15.9,25,0.00,,,0.00,VWS V14.01,2013-06-11 18:04:00,
2013-06-11 11:09:00,53.8,18.8,29.88,SW,226,8.3,8.3,25,0.00,,,0.00,VWS V14.01,2013-06-11 18:09:00,
2013-06-11 11:15:00,53.6,18.6,29.88,West,267,11.4,11.4,25,0.00,,,0.00,VWS V14.01,2013-06-11 18:15:00,
2013-06-11 11:21:00,53.8,18.8,29.88,West,266,10.5,10.5,25,0.00,,,0.00,VWS V14.01,2013-06-11 18:21:00,
2013-06-11 11:26:00,53.8,18.8,29.88,WSW,256,12.8,12.8,25,0.00,,,0.00,VWS V14.01,2013-06-11 18:26:00,
2013-06-11 11:32:00,54.1,19.1,29.88,SW,228,11.0,11.0,25,0.00,,,0.00,VWS V14.01,2013-06-11 18:32:00,
2013-06-11 11:38:00,54.5,19.4,29.91,SW,232,13.2,13.2,25,0.00,,,0.00,VWS V14.01,2013-06-11 18:38:00,
2013-06-11 11:43:00,54.7,19.6,29.91,SW,232,13.2,13.2,25,0.00,,,0.00,VWS V14.01,2013-06-11 18:43:00,
2013-06-11 11:49:00,54.9,19.7,29.91,West,259,8.1,8.1,25,0.00,,,0.00,VWS V14.01,2013-06-11 18:49:00,
2013-06-11 11:54:00,55.0,19.9,29.91,West,273,12.8,12.8,25,0.00,,,0.00,VWS V14.01,2013-06-11 18:54:00,
2013-06-11 12:00:00,55.6,20.3,29.91,SW,233,10.1,17.4,25,0.00,,,0.00,VWS V14.01,2013-06-11 19:00:00,
2013-06-11 12:05:00,56.3,18.0,29.91,SW,233,10.1,10.1,22,0.00,,,0.00,VWS V14.01,2013-06-11 19:05:00,
2013-06-11 12:10:00,56.7,18.3,29.91,SW,222,6.7,12.3,22,0.00,,,0.00,VWS V14.01,2013-06-11 19:10:00,
2013-06-11 12:15:00,56.8,18.4,29.91,WNW,288,7.6,7.6,22,0.00,,,0.00,VWS V14.01,2013-06-11 19:15:00,
2013-06-11 12:20:00,57.2,18.7,29.91,SSW,204,5.4,10.1,22,0.00,,,0.00,VWS V14.01,2013-06-11 19:20:00,
2013-06-11 12:25:00,57.4,18.9,29.91,WSW,258,11.0,11.0,22,0.00,,,0.00,VWS V14.01,2013-06-11 19:25:00,
2013-06-11 12:31:00,57.4,18.9,29.91,WSW,245,12.3,12.3,22,0.00,,,0.00,VWS V14.01,2013-06-11 19:31:00,
2013-06-11 12:37:00,57.7,19.2,29.91,WSW,239,7.6,7.6,22,0.00,,,0.00,VWS V14.01,2013-06-11 19:37:00,
2013-06-11 12:43:00,57.7,19.2,29.91,SSW,205,5.8,5.8,22,0.00,,,0.00,VWS V14.01,2013-06-11 19:43:00,
2013-06-11 12:48:00,57.9,19.3,29.91,WNW,283,7.6,7.6,22,0.00,,,0.00,VWS V14.01,2013-06-11 19:48:00,
2013-06-11 12:54:00,57.9,19.3,29.91,WSW,240,5.8,5.8,22,0.00,,,0.00,VWS V14.01,2013-06-11 19:54:00,
2013-06-11 12:59:00,57.7,19.2,29.91,WSW,251,11.9,11.9,22,0.00,,,0.00,VWS V14.01,2013-06-11 19:59:00,
2013-06-11 13:05:00,58.1,19.5,29.91,SW,235,8.7,8.7,22,0.00,,,0.00,VWS V14.01,2013-06-11 20:05:00,
2013-06-11 13:10:00,58.1,19.5,29.91,SW,235,14.5,14.5,22,0.00,,,0.00,VWS V14.01,2013-06-11 20:10:00,
2013-06-11 13:16:00,57.9,19.3,29.91,SW,218,8.7,8.7,22,0.00,,,0.00,VWS V14.01,2013-06-11 20:16:00,
2013-06-11 13:21:00,58.1,19.5,29.91,WSW,238,13.2,13.2,22,0.00,,,0.00,VWS V14.01,2013-06-11 20:21:00,
2013-06-11 13:27:00,58.5,16.4,29.91,SW,224,7.6,8.1,19,0.00,,,0.00,VWS V14.01,2013-06-11 20:27:00,
2013-06-11 13:33:00,58.8,16.7,29.91,WSW,248,3.1,8.3,19,0.00,,,0.00,VWS V14.01,2013-06-11 20:33:00,
2013-06-11 13:38:00,58.8,16.7,29.91,SW,219,12.8,12.8,19,0.00,,,0.00,VWS V14.01,2013-06-11 20:38:00,
2013-06-11 13:44:00,59.4,17.1,29.91,NNW,341,5.8,5.8,19,0.00,,,0.00,VWS V14.01,2013-06-11 20:44:00,
2013-06-11 13:49:00,59.5,17.3,29.91,SW,216,17.0,17.0,19,0.00,,,0.00,VWS V14.01,2013-06-11 20:49:00,
2013-06-11 13:54:00,59.4,17.1,29.91,West,260,0.0,0.0,19,0.00,,,0.00,VWS V14.01,2013-06-11 20:54:00,
2013-06-11 14:00:00,59.5,17.3,29.91,SW,236,11.0,11.0,19,0.00,,,0.00,VWS V14.01,2013-06-11 21:00:00,
2013-06-11 14:05:00,59.9,17.6,29.91,WSW,248,17.4,17.4,19,0.00,,,0.00,VWS V14.01,2013-06-11 21:05:00,
2013-06-11 14:10:00,59.7,17.4,29.91,SW,230,13.2,13.2,19,0.00,,,0.00,VWS V14.01,2013-06-11 21:10:00,
2013-06-11 14:15:00,59.5,17.3,29.91,SW,215,12.8,12.8,19,0.00,,,0.00,VWS V14.01,2013-06-11 21:15:00,
2013-06-11 14:21:00,59.9,17.6,29.91,SW,232,8.3,8.3,19,0.00,,,0.00,VWS V14.01,2013-06-11 21:21:00,
2013-06-11 14:26:00,59.7,17.4,29.91,SW,215,9.6,9.6,19,0.00,,,0.00,VWS V14.01,2013-06-11 21:26:00,
2013-06-11 14:32:00,58.8,16.7,29.91,West,265,12.8,12.8,19,0.00,,,0.00,VWS V14.01,2013-06-11 21:32:00,
2013-06-11 14:38:00,58.8,16.7,29.91,WSW,246,6.3,6.3,19,0.00,,,0.00,VWS V14.01,2013-06-11 21:38:00,
2013-06-11 14:43:00,59.4,17.1,29.91,SW,230,13.2,13.2,19,0.00,,,0.00,VWS V14.01,2013-06-11 21:43:00,
2013-06-11 14:48:00,59.4,17.1,29.91,North,350,3.1,6.3,19,0.00,,,0.00,VWS V14.01,2013-06-11 21:48:00,
2013-06-11 14:53:00,59.4,17.1,29.91,East,80,7.2,7.2,19,0.00,,,0.00,VWS V14.01,2013-06-11 21:53:00,
2013-06-11 14:59:00,59.4,17.1,29.91,SW,221,17.4,17.4,19,0.00,,,0.00,VWS V14.01,2013-06-11 21:59:00,
2013-06-11 15:04:00,59.4,17.1,29.91,SW,232,9.6,9.6,19,0.00,,,0.00,VWS V14.01,2013-06-11 22:04:00,
2013-06-11 15:09:00,59.7,17.4,29.91,SW,235,12.8,12.8,19,0.00,,,0.00,VWS V14.01,2013-06-11 22:09:00,
2013-06-11 15:15:00,59.7,17.4,29.91,SW,224,10.5,10.5,19,0.00,,,0.00,VWS V14.01,2013-06-11 22:15:00,
2013-06-11 15:20:00,59.2,17.0,29.91,SW,224,10.5,10.5,19,0.00,,,0.00,VWS V14.01,2013-06-11 22:20:00,
2013-06-11 15:26:00,58.5,16.4,29.94,SW,230,17.0,17.0,19,0.00,,,0.00,VWS V14.01,2013-06-11 22:26:00,
2013-06-11 15:31:00,58.1,16.1,29.94,SW,236,3.6,3.6,19,0.00,,,0.00,VWS V14.01,2013-06-11 22:31:00,
2013-06-11 15:37:00,57.4,15.5,29.94,SW,216,13.2,13.2,19,0.00,,,0.00,VWS V14.01,2013-06-11 22:37:00,
2013-06-11 15:42:00,58.1,16.1,29.94,SW,225,24.6,24.6,19,0.00,,,0.00,VWS V14.01,2013-06-11 22:42:00,
2013-06-11 15:48:00,58.1,16.1,29.94,SSW,208,5.8,5.8,19,0.00,,,0.00,VWS V14.01,2013-06-11 22:48:00,
2013-06-11 15:54:00,58.3,16.2,29.94,SW,220,14.5,14.5,19,0.00,,,0.00,VWS V14.01,2013-06-11 22:54:00,
2013-06-11 15:59:00,57.4,15.5,29.94,SW,219,21.5,21.5,19,0.00,,,0.00,VWS V14.01,2013-06-11 22:59:00,
2013-06-11 16:04:00,58.1,16.1,29.94,WSW,254,13.2,13.2,19,0.00,,,0.00,VWS V14.01,2013-06-11 23:04:00,
2013-06-11 16:09:00,58.1,16.1,29.94,SSW,205,9.6,15.0,19,0.00,,,0.00,VWS V14.01,2013-06-11 23:09:00,
2013-06-11 16:15:00,57.6,15.6,29.94,SW,234,20.1,20.1,19,0.00,,,0.00,VWS V14.01,2013-06-11 23:15:00,
2013-06-11 16:20:00,57.4,15.5,29.94,SW,227,3.6,3.6,19,0.00,,,0.00,VWS V14.01,2013-06-11 23:20:00,
2013-06-11 16:26:00,57.4,18.9,29.94,WSW,253,14.5,14.5,22,0.00,,,0.00,VWS V14.01,2013-06-11 23:26:00,
2013-06-11 16:31:00,57.7,15.8,29.94,SW,234,16.3,16.3,19,0.00,,,0.00,VWS V14.01,2013-06-11 23:31:00,
2013-06-11 16:37:00,57.6,15.6,29.94,SW,234,16.3,16.3,19,0.00,,,0.00,VWS V14.01,2013-06-11 23:37:00,
2013-06-11 16:42:00,57.2,15.3,29.94,SW,235,12.8,21.5,19,0.00,,,0.00,VWS V14.01,2013-06-11 23:42:00,
2013-06-11 16:47:00,56.5,18.1,29.94,WSW,258,22.4,22.4,22,0.00,,,0.00,VWS V14.01,2013-06-11 23:47:00,
2013-06-11 16:52:00,56.5,18.1,29.94,WSW,253,12.8,12.8,22,0.00,,,0.00,VWS V14.01,2013-06-11 23:52:00,
2013-06-11 16:58:00,55.9,17.7,29.94,SW,222,12.8,12.8,22,0.00,,,0.00,VWS V14.01,2013-06-11 23:58:00,
2013-06-11 17:03:00,57.0,18.6,29.94,SW,225,15.4,15.4,22,0.00,,,0.00,VWS V14.01,2013-06-12 00:03:00,
2013-06-11 17:08:00,57.2,18.7,29.94,WSW,257,12.8,12.8,22,0.00,,,0.00,VWS V14.01,2013-06-12 00:08:00,
2013-06-11 17:14:00,57.9,19.3,29.94,SSW,208,8.1,8.1,22,0.00,,,0.00,VWS V14.01,2013-06-12 00:14:00,
2013-06-11 17:19:00,56.5,18.1,29.94,WSW,257,20.6,20.6,22,0.00,,,0.00,VWS V14.01,2013-06-12 00:19:00,
2013-06-11 17:25:00,56.5,18.1,29.94,WSW,249,12.3,12.3,22,0.00,,,0.00,VWS V14.01,2013-06-12 00:25:00,
2013-06-11 17:31:00,56.5,18.1,29.94,SW,229,14.1,14.1,22,0.00,,,0.00,VWS V14.01,2013-06-12 00:31:00,
2013-06-11 17:36:00,56.8,18.4,29.94,WSW,238,8.1,14.5,22,0.00,,,0.00,VWS V14.01,2013-06-12 00:36:00,
2013-06-11 17:41:00,57.0,18.6,29.94,NW,309,11.0,11.0,22,0.00,,,0.00,VWS V14.01,2013-06-12 00:41:00,
2013-06-11 17:47:00,56.7,18.3,29.94,WSW,237,15.4,15.4,22,0.00,,,0.00,VWS V14.01,2013-06-12 00:47:00,
2013-06-11 17:53:00,56.5,18.1,29.94,WNW,299,12.8,12.8,22,0.00,,,0.00,VWS V14.01,2013-06-12 00:53:00,
2013-06-11 17:58:00,56.8,18.4,29.94,SSW,213,15.0,15.0,22,0.00,,,0.00,VWS V14.01,2013-06-12 00:58:00,
2013-06-11 18:04:00,56.7,18.3,29.94,SSW,213,15.0,15.0,22,0.00,,,0.00,VWS V14.01,2013-06-12 01:04:00,
2013-06-11 18:09:00,56.7,16.1,29.94,WSW,246,13.2,17.0,20,0.00,,,0.00,VWS V14.01,2013-06-12 01:09:00,
2013-06-11 18:14:00,57.2,15.3,29.94,West,275,2.7,2.7,19,0.00,,,0.00,VWS V14.01,2013-06-12 01:14:00,
2013-06-11 18:20:00,56.8,18.4,29.94,SW,222,15.4,15.4,22,0.00,,,0.00,VWS V14.01,2013-06-12 01:20:00,
2013-06-11 18:26:00,56.5,18.1,29.94,SW,235,8.7,8.7,22,0.00,,,0.00,VWS V14.01,2013-06-12 01:26:00,
2013-06-11 18:31:00,56.1,17.8,29.94,West,272,12.8,12.8,22,0.00,,,0.00,VWS V14.01,2013-06-12 01:31:00,
2013-06-11 18:36:00,55.9,17.7,29.94,WSW,238,11.9,11.9,22,0.00,,,0.00,VWS V14.01,2013-06-12 01:36:00,
2013-06-11 18:41:00,55.8,17.5,29.94,WSW,258,13.2,13.2,22,0.00,,,0.00,VWS V14.01,2013-06-12 01:41:00,
2013-06-11 18:47:00,55.8,17.5,29.94,SW,217,11.0,11.0,22,0.00,,,0.00,VWS V14.01,2013-06-12 01:47:00,
2013-06-11 18:52:00,55.6,17.4,29.94,SSW,208,8.1,8.1,22,0.00,,,0.00,VWS V14.01,2013-06-12 01:52:00,
2013-06-11 18:58:00,55.2,18.1,29.94,WSW,240,13.2,13.2,23,0.00,,,0.00,VWS V14.01,2013-06-12 01:58:00,
2013-06-11 19:03:00,55.0,17.9,29.94,WSW,239,10.1,10.1,23,0.00,,,0.00,VWS V14.01,2013-06-12 02:03:00,
2013-06-11 19:08:00,54.9,17.8,29.97,WSW,237,12.3,12.3,23,0.00,,,0.00,VWS V14.01,2013-06-12 02:08:00,
2013-06-11 19:14:00,54.7,17.6,29.97,SW,224,15.0,15.0,23,0.00,,,0.00,VWS V14.01,2013-06-12 02:14:00,
2013-06-11 19:19:00,54.5,17.5,29.97,SW,229,8.3,8.3,23,0.00,,,0.00,VWS V14.01,2013-06-12 02:19:00,
2013-06-11 19:25:00,54.5,17.5,29.97,SW,224,13.2,13.2,23,0.00,,,0.00,VWS V14.01,2013-06-12 02:25:00,
2013-06-11 19:30:00,54.7,19.6,29.97,SSW,210,10.1,10.1,25,0.00,,,0.00,VWS V14.01,2013-06-12 02:30:00,
2013-06-11 19:35:00,54.7,19.6,29.97,SW,230,6.3,6.3,25,0.00,,,0.00,VWS V14.01,2013-06-12 02:35:00,
2013-06-11 19:40:00,54.5,19.4,29.97,SW,236,12.8,12.8,25,0.00,,,0.00,VWS V14.01,2013-06-12 02:40:00,
2013-06-11 19:46:00,54.3,19.3,29.97,SW,232,8.1,8.1,25,0.00,,,0.00,VWS V14.01,2013-06-12 02:46:00,
2013-06-11 19:51:00,54.5,19.4,29.97,SW,220,12.3,12.3,25,0.00,,,0.00,VWS V14.01,2013-06-12 02:51:00,
2013-06-11 19:56:00,54.3,19.3,29.97,SW,226,13.2,13.2,25,0.00,,,0.00,VWS V14.01,2013-06-12 02:56:00,
2013-06-11 20:01:00,54.1,19.1,29.97,SW,235,10.1,10.1,25,0.00,,,0.00,VWS V14.01,2013-06-12 03:01:00,
2013-06-11 20:06:00,54.1,19.1,29.97,SW,231,8.7,8.7,25,0.00,,,0.00,VWS V14.01,2013-06-12 03:06:00,
2013-06-11 20:12:00,53.8,18.8,29.97,WSW,244,5.4,5.4,25,0.00,,,0.00,VWS V14.01,2013-06-12 03:12:00,
2013-06-11 20:17:00,53.6,18.6,29.97,SW,232,8.1,8.1,25,0.00,,,0.00,VWS V14.01,2013-06-12 03:17:00,
2013-06-11 20:22:00,53.4,19.4,29.97,WSW,254,0.0,7.6,26,0.00,,,0.00,VWS V14.01,2013-06-12 03:22:00,
2013-06-11 20:27:00,53.4,19.4,29.97,SW,235,4.0,4.0,26,0.00,,,0.00,VWS V14.01,2013-06-12 03:27:00,
2013-06-11 20:32:00,53.1,19.1,29.97,SW,223,9.2,9.2,26,0.00,,,0.00,VWS V14.01,2013-06-12 03:32:00,
2013-06-11 20:38:00,53.1,19.1,29.97,SW,234,5.4,5.8,26,0.00,,,0.00,VWS V14.01,2013-06-12 03:38:00,
2013-06-11 20:43:00,52.9,19.0,29.97,SSW,204,10.1,10.1,26,0.00,,,0.00,VWS V14.01,2013-06-12 03:43:00,
2013-06-11 20:48:00,53.1,19.1,29.97,West,267,2.7,2.7,26,0.00,,,0.00,VWS V14.01,2013-06-12 03:48:00,
2013-06-11 20:53:00,53.2,19.3,30.00,West,267,2.7,2.7,26,0.00,,,0.00,VWS V14.01,2013-06-12 03:53:00,
2013-06-11 20:59:00,53.2,19.3,30.00,SSW,193,5.8,6.3,26,0.00,,,0.00,VWS V14.01,2013-06-12 03:59:00,
2013-06-11 21:01:00,53.2,19.3,30.00,SSW,193,5.8,5.8,26,0.00,,,0.00,VWS V14.01,2013-06-12 04:01:00,
2013-06-11 21:02:00,53.2,19.3,30.00,SSW,193,5.8,5.8,26,0.00,,,0.00,VWS V14.01,2013-06-12 04:02:00,
2013-06-11 21:03:00,53.2,19.3,30.00,SSW,193,5.8,5.8,26,0.00,,,0.00,VWS V14.01,2013-06-12 04:03:00,
2013-06-11 21:07:00,53.1,19.1,30.00,SW,225,8.3,10.1,26,0.00,,,0.00,VWS V14.01,2013-06-12 04:07:00,
2013-06-11 21:13:00,53.1,19.1,30.00,WSW,243,5.8,5.8,26,0.00,,,0.00,VWS V14.01,2013-06-12 04:13:00,
2013-06-11 21:17:00,52.7,18.8,30.00,WSW,243,5.8,5.8,26,0.00,,,0.00,VWS V14.01,2013-06-12 04:17:00,
2013-06-11 21:22:00,52.9,19.0,30.00,WSW,237,4.0,10.5,26,0.00,,,0.00,VWS V14.01,2013-06-12 04:22:00,
2013-06-11 21:28:00,53.2,19.3,30.00,SW,222,10.1,10.1,26,0.00,,,0.00,VWS V14.01,2013-06-12 04:28:00,
2013-06-11 21:34:00,53.2,19.3,30.00,SW,222,5.8,8.3,26,0.00,,,0.00,VWS V14.01,2013-06-12 04:34:00,
2013-06-11 21:39:00,52.9,19.0,30.00,SW,227,9.2,9.2,26,0.00,,,0.00,VWS V14.01,2013-06-12 04:39:00,
2013-06-11 21:44:00,52.3,18.5,30.00,WSW,237,8.7,8.7,26,0.00,,,0.00,VWS V14.01,2013-06-12 04:44:00,
2013-06-11 21:50:00,52.7,18.8,30.00,SSW,210,8.3,10.5,26,0.00,,,0.00,VWS V14.01,2013-06-12 04:50:00,
2013-06-11 21:55:00,52.5,18.6,30.00,SW,223,7.6,11.0,26,0.00,,,0.00,VWS V14.01,2013-06-12 04:55:00,
2013-06-11 22:01:00,51.3,18.4,30.00,SW,229,7.2,7.2,27,0.00,,,0.00,VWS V14.01,2013-06-12 05:01:00,
2013-06-11 22:06:00,50.7,18.0,30.00,West,273,0.0,5.4,27,0.00,,,0.00,VWS V14.01,2013-06-12 05:06:00,
2013-06-11 22:11:00,51.4,18.6,30.00,WSW,241,6.3,6.3,27,0.00,,,0.00,VWS V14.01,2013-06-12 05:11:00,
2013-06-11 22:16:00,50.9,18.1,30.00,SW,225,10.5,10.5,27,0.00,,,0.00,VWS V14.01,2013-06-12 05:16:00,
2013-06-11 22:21:00,51.6,18.8,30.00,SW,234,6.3,8.7,27,0.00,,,0.00,VWS V14.01,2013-06-12 05:21:00,
2013-06-11 22:27:00,50.7,18.0,30.00,SW,221,7.6,7.6,27,0.00,,,0.00,VWS V14.01,2013-06-12 05:27:00,
2013-06-11 22:32:00,50.2,17.5,30.00,SW,224,4.0,4.0,27,0.00,,,0.00,VWS V14.01,2013-06-12 05:32:00,
2013-06-11 22:37:00,50.2,17.5,30.00,SW,225,4.9,4.9,27,0.00,,,0.00,VWS V14.01,2013-06-12 05:37:00,
2013-06-11 22:42:00,50.5,17.8,30.00,West,269,8.1,8.1,27,0.00,,,0.00,VWS V14.01,2013-06-12 05:42:00,
2013-06-11 22:47:00,50.4,17.7,30.00,SW,227,4.0,4.0,27,0.00,,,0.00,VWS V14.01,2013-06-12 05:47:00,
2013-06-11 22:52:00,50.2,17.5,30.00,WNW,282,5.8,5.8,27,0.00,,,0.00,VWS V14.01,2013-06-12 05:52:00,
2013-06-11 22:58:00,50.4,17.7,30.03,West,271,0.0,0.0,27,0.00,,,0.00,VWS V14.01,2013-06-12 05:58:00,
2013-06-11 23:03:00,50.4,17.7,30.03,SE,137,3.6,3.6,27,0.00,,,0.00,VWS V14.01,2013-06-12 06:03:00,
2013-06-11 23:09:00,50.4,17.7,30.03,WSW,256,2.7,3.6,27,0.00,,,0.00,VWS V14.01,2013-06-12 06:09:00,
2013-06-11 23:14:00,50.7,18.0,30.03,WSW,256,2.7,2.7,27,0.00,,,0.00,VWS V14.01,2013-06-12 06:14:00,
2013-06-11 23:20:00,50.5,17.8,30.03,West,272,0.0,2.2,27,0.00,,,0.00,VWS V14.01,2013-06-12 06:20:00,
2013-06-11 23:25:00,50.5,17.8,30.03,WSW,253,6.3,6.3,27,0.00,,,0.00,VWS V14.01,2013-06-12 06:25:00,
2013-06-11 23:30:00,50.4,17.7,30.03,NNW,337,0.0,0.0,27,0.00,,,0.00,VWS V14.01,2013-06-12 06:30:00,
2013-06-11 23:35:00,50.4,17.7,30.03,SW,227,10.1,10.1,27,0.00,,,0.00,VWS V14.01,2013-06-12 06:35:00,
2013-06-11 23:41:00,49.8,17.2,30.00,SW,236,6.3,6.3,27,0.00,,,0.00,VWS V14.01,2013-06-12 06:41:00,
2013-06-11 23:46:00,49.6,17.0,30.00,WSW,257,5.4,5.4,27,0.00,,,0.00,VWS V14.01,2013-06-12 06:46:00,
2013-06-11 23:52:00,49.5,16.9,30.00,WSW,246,6.3,6.3,27,0.00,,,0.00,VWS V14.01,2013-06-12 06:52:00,
2013-06-11 23:57:00,49.5,16.9,30.00,WNW,283,8.3,8.3,27,0.00,,,0.00,VWS V14.01,2013-06-12 06:57:00,